Hauptseite
METAR-TAF:

METAR-TAF

Flughäfen :

Flughafen Karlsruhe/Baden-Baden

Baden-Baden, Deutschland

Breite: 48-46-43N, Länge: 008-04-47E, Höhe: 124 m

Beobachtung

Neuester Wetterbericht von vor 23 Minuten, um 04:50 UTC
Wind 4 kt aus Nord
Temperatur 12°C
Luftfeuchtigkeit 94%
Luftdruck 1014 hPa
Sichtweite 10 km oder mehr
keine Wolken unter 1500 m und keine Kumulonimbus oder Gewitterwolken

METAR: EDSB 210450Z 01004KT CAVOK 12/11 Q1014

Zeit: 07:13 (05:13 UTC)

Prognose

Neuester Wetterbericht von vor 2 Stunden und 13 Minuten, um 03:00 UTC
Gültige Prognose vom 21 um 04 UTC bis 21 um 24 UTC
Wind 4 kt aus Nord/Nordost
Sichtweite: 9000 m
Wahrscheinlichkeit 30% :
Zeitweise
vom 21 um 04 UTC bis 21 um 07 UTC
Sichtweite: 3000 m
feuchter Dunst

TAF: EDSB 210300Z 2104/2124 02004KT 9000 NSC PROB30 TEMPO 2104/2107 3000 BR

Wetterbeobachtungen und Prognosen von mehr als 4000 Flughäfen (METAR und TAF Bericht).

Die verfügbaren Stationen werden durch gelbe und rote Markierungen auf der Karte dargestellt.

Führen Sie die Maus auf sie, um den Namen der Station zu sehen.

Darauf klicken, um die Beobachtung von Wetterbeobachtungen und Prognosen zu sehen.

Um die Karte zu ändern : klicken Sie auf den grünen Tasten mit einem schwarzen Kreuz Zum Vergrößern, auf den grünen Button mit einem Gedankenstrich zu verkleinern, oder auf die grünen Pfeile für benachbarte Karten.


METAR-TAF: